Time;durP1;ratioP1;P1;durP2;ratioP2;P2;SDS_P1;SDS_P2;PMS_P1;PMS_P2;Temp;Humidity;BMP_temperature;BMP_pressure;BME280_temperature;BME280_humidity;BME280_pressure;Samples;Min_cycle;Max_cycle;Signal;HPM_P1;HPM_P2
2022/07/16 00:01:23;;;;;;;;;;;26.40;79.40;;;;;;5068423;28;19940;-58
2022/07/16 00:03:52;;;;;;;;;;;26.40;79.50;;;;;;5069395;28;19932;-57
2022/07/16 00:06:20;;;;;;;;;;;26.30;79.30;;;;;;5064154;28;19932;-57
2022/07/16 00:08:48;;;;;;;;;;;26.30;79.10;;;;;;5055775;28;19928;-54
2022/07/16 00:11:15;;;;;;;;;;;26.30;79.10;;;;;;5070619;28;19925;-57
2022/07/16 00:13:42;;;;;;;;;;;26.30;79.20;;;;;;5068648;28;19924;-57
2022/07/16 00:16:10;;;;;;;;;;;26.30;79.30;;;;;;5064619;28;19924;-57
2022/07/16 00:21:24;;;;;;;;;;;26.30;79.70;;;;;;5056984;28;19928;-57
2022/07/16 00:23:51;;;;;;;;;;;26.30;79.50;;;;;;5069698;28;19933;-57
2022/07/16 00:26:18;;;;;;;;;;;26.30;80.00;;;;;;5063887;28;19929;-57
2022/07/16 00:28:46;;;;;;;;;;;26.30;80.00;;;;;;5056187;28;19929;-57
2022/07/16 00:31:13;;;;;;;;;;;26.30;80.30;;;;;;5064632;28;20315;-57
2022/07/16 00:33:40;;;;;;;;;;;26.30;79.70;;;;;;5055582;28;20501;-54
2022/07/16 00:36:07;;;;;;;;;;;26.30;79.80;;;;;;5062585;28;19928;-52
2022/07/16 00:38:35;;;;;;;;;;;26.30;79.50;;;;;;5044205;28;19932;-55
2022/07/16 00:41:02;;;;;;;;;;;26.30;79.50;;;;;;5059125;28;19933;-57
2022/07/16 00:43:29;;;;;;;;;;;26.30;79.30;;;;;;5064160;28;19929;-56
2022/07/16 00:45:57;;;;;;;;;;;26.30;79.50;;;;;;5060163;28;20104;-59
2022/07/16 00:48:30;;;;;;;;;;;26.30;79.70;;;;;;5051888;28;19929;-57
2022/07/16 00:50:58;;;;;;;;;;;26.20;79.30;;;;;;5065330;28;20309;-57
2022/07/16 00:53:25;;;;;;;;;;;26.20;79.50;;;;;;5060279;28;19963;-56
2022/07/16 00:55:52;;;;;;;;;;;26.20;79.40;;;;;;5076491;28;19925;-56
2022/07/16 00:58:19;;;;;;;;;;;26.20;79.60;;;;;;5060553;28;19932;-54
2022/07/16 01:00:46;;;;;;;;;;;26.20;79.70;;;;;;5072717;28;20378;-57
2022/07/16 01:03:13;;;;;;;;;;;26.20;79.50;;;;;;5060572;28;20295;-58
2022/07/16 01:05:41;;;;;;;;;;;26.20;79.60;;;;;;5061253;28;20208;-58
2022/07/16 01:08:08;;;;;;;;;;;26.20;79.80;;;;;;5051448;28;19928;-58
2022/07/16 01:10:35;;;;;;;;;;;26.20;79.80;;;;;;5069408;28;19928;-58
2022/07/16 01:13:03;;;;;;;;;;;26.20;79.90;;;;;;5067085;28;19936;-58
2022/07/16 01:15:30;;;;;;;;;;;26.20;79.80;;;;;;5045018;28;19928;-53
2022/07/16 01:17:57;;;;;;;;;;;26.20;79.50;;;;;;5068517;28;19925;-56
2022/07/16 01:20:25;;;;;;;;;;;26.20;79.40;;;;;;5059077;28;20284;-56
2022/07/16 01:22:52;;;;;;;;;;;26.10;79.30;;;;;;5056145;28;19929;-57
2022/07/16 01:25:19;;;;;;;;;;;26.10;79.30;;;;;;5063033;28;19924;-57
2022/07/16 01:27:47;;;;;;;;;;;26.10;79.20;;;;;;5067668;28;19935;-54
2022/07/16 01:30:14;;;;;;;;;;;26.10;79.10;;;;;;5060840;28;20396;-56
2022/07/16 01:32:41;;;;;;;;;;;26.10;79.00;;;;;;5049378;28;19936;-53
2022/07/16 01:35:08;;;;;;;;;;;26.10;79.00;;;;;;5055315;28;19928;-58
2022/07/16 01:37:36;;;;;;;;;;;26.10;78.90;;;;;;5059284;28;20392;-52
2022/07/16 01:40:03;;;;;;;;;;;26.10;78.90;;;;;;5055611;28;19933;-57
2022/07/16 01:42:31;;;;;;;;;;;26.10;78.90;;;;;;5062529;28;19936;-54
2022/07/16 01:44:59;;;;;;;;;;;26.10;78.90;;;;;;5052321;28;20339;-55
2022/07/16 01:47:26;;;;;;;;;;;26.10;79.10;;;;;;5062804;28;19935;-57
2022/07/16 01:49:54;;;;;;;;;;;26.00;79.30;;;;;;5050895;28;19928;-57
2022/07/16 01:52:21;;;;;;;;;;;26.00;79.50;;;;;;5062439;28;19928;-56
2022/07/16 01:54:52;;;;;;;;;;;26.00;79.60;;;;;;5063846;28;19925;-55
2022/07/16 01:57:20;;;;;;;;;;;26.00;79.60;;;;;;5049703;28;20289;-53
2022/07/16 01:59:47;;;;;;;;;;;26.00;79.70;;;;;;5055060;28;19929;-53
2022/07/16 02:02:14;;;;;;;;;;;26.00;79.90;;;;;;5049911;28;20278;-55
2022/07/16 02:04:41;;;;;;;;;;;26.00;79.90;;;;;;5065188;28;19932;-54
2022/07/16 02:07:09;;;;;;;;;;;26.00;80.00;;;;;;5058150;28;20308;-57
2022/07/16 02:09:36;;;;;;;;;;;26.00;82.00;;;;;;5058267;28;20307;-57
2022/07/16 02:12:04;;;;;;;;;;;26.00;81.80;;;;;;5061709;28;19932;-55
2022/07/16 02:14:31;;;;;;;;;;;26.00;81.90;;;;;;5061200;28;19932;-55
2022/07/16 02:16:58;;;;;;;;;;;26.00;81.00;;;;;;5059565;28;19924;-54
2022/07/16 02:19:25;;;;;;;;;;;26.00;81.50;;;;;;5055685;28;19944;-56
2022/07/16 02:21:53;;;;;;;;;;;26.00;80.90;;;;;;5063739;28;20722;-57
2022/07/16 02:24:20;;;;;;;;;;;26.00;80.70;;;;;;5056942;28;19936;-55
2022/07/16 02:26:47;;;;;;;;;;;26.00;80.40;;;;;;5051525;28;20535;-56
2022/07/16 02:29:14;;;;;;;;;;;26.00;80.10;;;;;;5051266;28;19940;-53
2022/07/16 02:31:41;;;;;;;;;;;26.00;80.20;;;;;;5066442;28;19935;-56
2022/07/16 02:34:09;;;;;;;;;;;26.00;80.20;;;;;;5052378;28;19928;-57
2022/07/16 02:36:36;;;;;;;;;;;26.00;80.10;;;;;;5058208;28;19928;-54
2022/07/16 02:39:03;;;;;;;;;;;26.00;80.20;;;;;;5049055;28;19929;-56
2022/07/16 02:41:30;;;;;;;;;;;25.90;80.00;;;;;;5061784;28;19929;-57
2022/07/16 02:43:58;;;;;;;;;;;25.90;80.20;;;;;;5048398;28;19933;-57
2022/07/16 02:46:25;;;;;;;;;;;25.90;80.00;;;;;;5063278;28;20408;-56
2022/07/16 02:48:52;;;;;;;;;;;25.90;80.00;;;;;;5055263;28;20273;-57
2022/07/16 02:51:19;;;;;;;;;;;25.90;80.00;;;;;;5054756;28;19925;-56
2022/07/16 02:53:46;;;;;;;;;;;25.90;80.00;;;;;;5056850;28;19925;-54
2022/07/16 02:56:13;;;;;;;;;;;25.90;79.80;;;;;;5055079;28;19925;-53
2022/07/16 02:58:40;;;;;;;;;;;25.90;79.80;;;;;;5039420;28;19928;-57
2022/07/16 03:01:08;;;;;;;;;;;25.90;79.80;;;;;;5050320;28;19940;-58
2022/07/16 03:03:35;;;;;;;;;;;25.90;79.70;;;;;;5047774;28;19940;-56
2022/07/16 03:06:02;;;;;;;;;;;25.90;79.60;;;;;;5066832;28;19935;-57
2022/07/16 03:08:29;;;;;;;;;;;25.90;79.60;;;;;;5049752;28;19928;-55
2022/07/16 03:10:56;;;;;;;;;;;25.80;79.40;;;;;;5052544;28;19928;-58
2022/07/16 03:13:23;;;;;;;;;;;25.80;79.50;;;;;;5049212;28;19929;-56
2022/07/16 03:15:51;;;;;;;;;;;25.80;79.40;;;;;;5055581;28;19929;-55
2022/07/16 03:18:18;;;;;;;;;;;25.80;79.40;;;;;;5056214;28;19929;-58
2022/07/16 03:20:45;;;;;;;;;;;25.90;79.40;;;;;;5060373;28;19939;-57
2022/07/16 03:23:12;;;;;;;;;;;25.80;79.30;;;;;;5055650;28;19929;-56
2022/07/16 03:25:41;;;;;;;;;;;25.80;79.20;;;;;;5062402;28;19928;-54
2022/07/16 03:28:08;;;;;;;;;;;25.80;79.20;;;;;;5050038;28;19936;-55
2022/07/16 03:30:36;;;;;;;;;;;25.80;79.20;;;;;;5061745;28;19932;-57
2022/07/16 03:33:03;;;;;;;;;;;25.80;79.10;;;;;;5050508;28;20400;-57
2022/07/16 03:35:30;;;;;;;;;;;25.80;79.00;;;;;;5058404;28;19928;-57
2022/07/16 03:40:43;;;;;;;;;;;25.80;79.20;;;;;;5049757;28;19936;-55
2022/07/16 03:43:10;;;;;;;;;;;25.70;79.10;;;;;;5050656;28;19992;-56
2022/07/16 03:45:37;;;;;;;;;;;25.70;79.10;;;;;;5059908;28;19928;-57
2022/07/16 03:48:04;;;;;;;;;;;25.70;79.10;;;;;;5064323;28;20308;-56
2022/07/16 03:50:31;;;;;;;;;;;25.70;79.00;;;;;;5054163;28;19924;-56
2022/07/16 03:52:59;;;;;;;;;;;25.70;79.00;;;;;;5047040;28;20701;-54
2022/07/16 03:55:26;;;;;;;;;;;25.70;79.30;;;;;;5063378;28;19933;-54
2022/07/16 03:57:53;;;;;;;;;;;25.70;79.30;;;;;;5049614;28;20416;-54
2022/07/16 04:00:20;;;;;;;;;;;25.70;79.60;;;;;;5054990;28;19936;-57
2022/07/16 04:02:47;;;;;;;;;;;25.70;79.70;;;;;;5062645;28;19929;-56
2022/07/16 04:05:14;;;;;;;;;;;25.70;79.40;;;;;;5059205;28;20408;-56
2022/07/16 04:07:41;;;;;;;;;;;25.70;79.10;;;;;;5068133;28;19928;-58
2022/07/16 04:10:12;;;;;;;;;;;25.70;79.40;;;;;;5058688;28;19929;-55
2022/07/16 04:12:39;;;;;;;;;;;25.70;79.30;;;;;;5062064;28;19932;-57
2022/07/16 04:15:07;;;;;;;;;;;25.70;79.60;;;;;;5063674;28;20410;-57
2022/07/16 04:17:34;;;;;;;;;;;25.70;79.10;;;;;;5069442;28;19939;-56
2022/07/16 04:20:01;;;;;;;;;;;25.70;79.30;;;;;;5062553;28;19925;-56
2022/07/16 04:22:29;;;;;;;;;;;25.70;79.10;;;;;;5054235;28;19925;-55
2022/07/16 04:24:56;;;;;;;;;;;25.70;79.00;;;;;;5052945;28;19936;-54
2022/07/16 04:27:23;;;;;;;;;;;25.70;78.90;;;;;;5060895;28;20339;-57
2022/07/16 04:29:50;;;;;;;;;;;25.70;79.60;;;;;;5060409;28;19936;-56
2022/07/16 04:32:17;;;;;;;;;;;25.70;79.80;;;;;;5055783;28;19936;-57
2022/07/16 04:34:44;;;;;;;;;;;25.70;79.80;;;;;;5058231;28;20408;-58
2022/07/16 04:37:11;;;;;;;;;;;25.70;80.50;;;;;;5066569;28;20307;-57
2022/07/16 04:39:38;;;;;;;;;;;25.70;79.90;;;;;;5058945;28;19936;-58
2022/07/16 04:42:05;;;;;;;;;;;25.70;79.90;;;;;;5066536;28;19939;-60
2022/07/16 04:44:33;;;;;;;;;;;25.70;79.90;;;;;;5065943;28;20311;-57
2022/07/16 04:47:00;;;;;;;;;;;25.60;79.90;;;;;;5050150;28;20423;-53
2022/07/16 04:49:27;;;;;;;;;;;25.70;80.10;;;;;;5063306;28;19932;-53
2022/07/16 04:51:54;;;;;;;;;;;25.60;80.10;;;;;;5063023;28;19925;-54
2022/07/16 04:54:21;;;;;;;;;;;25.60;80.00;;;;;;5053436;28;20403;-54
2022/07/16 04:56:48;;;;;;;;;;;25.70;80.10;;;;;;5055531;28;19944;-54
2022/07/16 04:59:15;;;;;;;;;;;25.70;80.00;;;;;;5066337;28;19935;-54
2022/07/16 05:01:42;;;;;;;;;;;25.70;79.60;;;;;;5067505;28;19947;-56
2022/07/16 05:04:10;;;;;;;;;;;25.70;79.60;;;;;;5054247;28;19928;-54
2022/07/16 05:06:37;;;;;;;;;;;25.70;79.60;;;;;;5058155;28;19928;-55
2022/07/16 05:09:04;;;;;;;;;;;25.70;79.80;;;;;;5067607;28;19928;-55
2022/07/16 05:11:31;;;;;;;;;;;25.70;79.60;;;;;;5060714;28;20285;-54
2022/07/16 05:13:58;;;;;;;;;;;25.70;79.60;;;;;;5050420;28;19936;-57
2022/07/16 05:16:25;;;;;;;;;;;25.70;79.50;;;;;;5058843;28;19961;-56
2022/07/16 05:18:53;;;;;;;;;;;25.70;79.40;;;;;;5049504;28;20263;-54
2022/07/16 05:21:20;;;;;;;;;;;25.70;79.40;;;;;;5065559;28;19965;-56
2022/07/16 05:23:48;;;;;;;;;;;25.70;79.40;;;;;;5049116;28;20029;-54
2022/07/16 05:26:15;;;;;;;;;;;25.70;78.90;;;;;;5064415;28;20252;-56
2022/07/16 05:28:42;;;;;;;;;;;25.70;78.80;;;;;;5052874;28;19925;-56
2022/07/16 05:31:09;;;;;;;;;;;25.70;78.50;;;;;;5064701;28;19939;-59
2022/07/16 05:33:36;;;;;;;;;;;25.70;78.50;;;;;;5048974;28;19929;-57
2022/07/16 05:36:03;;;;;;;;;;;25.60;78.30;;;;;;5061643;28;19925;-57
2022/07/16 05:38:30;;;;;;;;;;;25.60;78.40;;;;;;5063948;28;19929;-57
2022/07/16 05:40:58;;;;;;;;;;;25.60;79.00;;;;;;5055663;28;19929;-56
2022/07/16 05:43:25;;;;;;;;;;;25.70;79.10;;;;;;5056616;28;19935;-59
2022/07/16 05:45:52;;;;;;;;;;;25.70;79.30;;;;;;5050201;28;20023;-57
2022/07/16 05:48:19;;;;;;;;;;;25.70;79.10;;;;;;5048557;28;20423;-58
2022/07/16 05:50:46;;;;;;;;;;;25.70;79.30;;;;;;5060735;28;20399;-56
2022/07/16 05:53:13;;;;;;;;;;;25.70;79.40;;;;;;5062960;28;19943;-58
2022/07/16 05:55:40;;;;;;;;;;;25.60;79.10;;;;;;5065956;28;19929;-56
2022/07/16 05:58:07;;;;;;;;;;;25.60;78.90;;;;;;5057426;28;19929;-55
2022/07/16 06:00:34;;;;;;;;;;;25.60;79.10;;;;;;5061771;28;19929;-58
2022/07/16 06:03:02;;;;;;;;;;;25.60;79.30;;;;;;5056452;28;20304;-58
2022/07/16 06:05:29;;;;;;;;;;;25.70;79.50;;;;;;5059414;28;19928;-58
2022/07/16 06:07:56;;;;;;;;;;;25.70;79.70;;;;;;5042898;28;19939;-61
2022/07/16 06:10:23;;;;;;;;;;;25.70;79.90;;;;;;5036813;28;19963;-60
2022/07/16 06:12:51;;;;;;;;;;;25.70;79.60;;;;;;5043088;28;19931;-58
2022/07/16 06:15:18;;;;;;;;;;;25.70;79.80;;;;;;5037604;28;19933;-58
2022/07/16 06:17:45;;;;;;;;;;;25.80;80.00;;;;;;5037307;28;19931;-56
2022/07/16 06:20:12;;;;;;;;;;;25.70;79.90;;;;;;5039944;28;19925;-60
2022/07/16 06:22:39;;;;;;;;;;;25.80;80.10;;;;;;5037335;28;19925;-59
2022/07/16 06:25:11;;;;;;;;;;;25.70;79.90;;;;;;5044640;28;19929;-60
2022/07/16 06:27:42;;;;;;;;;;;25.70;80.10;;;;;;5042893;28;19936;-60
2022/07/16 06:30:10;;;;;;;;;;;25.70;80.60;;;;;;5045070;28;19924;-59
2022/07/16 06:32:38;;;;;;;;;;;25.70;80.60;;;;;;5043179;28;19936;-58
2022/07/16 06:35:06;;;;;;;;;;;25.70;80.70;;;;;;5043049;28;19933;-53
2022/07/16 06:37:33;;;;;;;;;;;25.70;80.80;;;;;;5045681;28;19925;-56
2022/07/16 06:40:00;;;;;;;;;;;25.80;81.00;;;;;;5040077;28;20300;-58
2022/07/16 06:42:27;;;;;;;;;;;25.80;81.20;;;;;;5043711;28;19933;-57
2022/07/16 06:44:57;;;;;;;;;;;25.80;81.10;;;;;;5037779;28;20224;-57
2022/07/16 06:47:24;;;;;;;;;;;25.80;81.10;;;;;;5037978;28;19925;-58
2022/07/16 06:49:52;;;;;;;;;;;25.80;81.20;;;;;;5043000;28;19944;-57
2022/07/16 06:52:19;;;;;;;;;;;25.80;81.40;;;;;;5043185;28;20307;-57
2022/07/16 06:54:46;;;;;;;;;;;25.90;81.50;;;;;;5042271;28;19932;-56
2022/07/16 06:57:13;;;;;;;;;;;25.80;81.40;;;;;;5040831;28;19929;-56
2022/07/16 06:59:40;;;;;;;;;;;25.80;79.90;;;;;;5036754;28;20400;-55
2022/07/16 07:02:07;;;;;;;;;;;25.60;76.40;;;;;;5037115;28;19948;-58
2022/07/16 07:04:34;;;;;;;;;;;25.30;74.10;;;;;;5044551;28;19928;-56
2022/07/16 07:07:03;;;;;;;;;;;25.20;72.90;;;;;;5050830;28;20290;-57
2022/07/16 07:09:30;;;;;;;;;;;25.00;72.40;;;;;;5056327;28;20224;-56
2022/07/16 07:11:57;;;;;;;;;;;24.80;72.90;;;;;;5059710;28;19924;-53
2022/07/16 07:14:24;;;;;;;;;;;24.80;73.80;;;;;;5064149;28;19932;-54
2022/07/16 07:16:58;;;;;;;;;;;24.80;72.70;;;;;;5061303;28;19936;-57
2022/07/16 07:19:25;;;;;;;;;;;24.70;72.90;;;;;;5058641;28;19929;-55
2022/07/16 07:21:52;;;;;;;;;;;24.70;72.90;;;;;;5064667;28;19929;-54
2022/07/16 07:24:20;;;;;;;;;;;24.70;72.80;;;;;;5061301;28;19929;-55
2022/07/16 07:27:07;;;;;;;;;;;24.70;72.80;;;;;;5063155;28;19933;-54
2022/07/16 07:29:34;;;;;;;;;;;24.70;72.50;;;;;;5055802;28;19935;-56
2022/07/16 07:32:01;;;;;;;;;;;24.60;72.50;;;;;;5058710;28;19940;-58
2022/07/16 07:34:29;;;;;;;;;;;24.50;72.70;;;;;;5046688;28;19943;-56
2022/07/16 07:36:56;;;;;;;;;;;24.50;74.00;;;;;;5063268;28;19935;-58
2022/07/16 07:39:23;;;;;;;;;;;24.50;73.40;;;;;;5047001;28;19929;-55
2022/07/16 07:41:50;;;;;;;;;;;24.50;73.90;;;;;;5060764;28;19951;-58
2022/07/16 07:44:17;;;;;;;;;;;24.60;74.50;;;;;;5062348;28;20367;-57
2022/07/16 07:46:44;;;;;;;;;;;24.50;75.20;;;;;;5063690;28;19935;-55
2022/07/16 07:49:11;;;;;;;;;;;24.50;74.10;;;;;;5060654;28;19928;-56
2022/07/16 07:51:39;;;;;;;;;;;24.60;74.20;;;;;;5066985;28;19937;-56
2022/07/16 07:54:06;;;;;;;;;;;24.60;76.40;;;;;;5051153;28;19928;-53
2022/07/16 07:56:33;;;;;;;;;;;24.70;76.30;;;;;;5065429;28;20300;-58
2022/07/16 07:59:00;;;;;;;;;;;24.80;74.70;;;;;;5062623;28;19929;-54
2022/07/16 08:01:28;;;;;;;;;;;24.80;74.60;;;;;;5048017;28;19932;-57
2022/07/16 08:03:55;;;;;;;;;;;24.80;75.20;;;;;;5061938;28;20054;-59
2022/07/16 08:06:22;;;;;;;;;;;24.90;77.50;;;;;;5058119;28;19940;-61
2022/07/16 08:08:49;;;;;;;;;;;24.80;75.40;;;;;;5062157;28;19976;-58
2022/07/16 08:11:16;;;;;;;;;;;24.80;76.90;;;;;;5063108;28;20161;-56
2022/07/16 08:13:44;;;;;;;;;;;24.90;78.50;;;;;;5060965;28;19932;-58
2022/07/16 08:16:31;;;;;;;;;;;25.00;75.80;;;;;;5065896;28;20399;-60
2022/07/16 08:18:59;;;;;;;;;;;24.90;76.20;;;;;;5063209;28;19928;-58
2022/07/16 08:21:26;;;;;;;;;;;24.90;78.60;;;;;;5062403;28;19935;-59
2022/07/16 08:26:43;;;;;;;;;;;24.90;74.90;;;;;;5066725;28;19948;-57
2022/07/16 08:29:10;;;;;;;;;;;24.90;75.70;;;;;;5043802;28;20392;-56
2022/07/16 08:31:37;;;;;;;;;;;24.90;77.20;;;;;;5058523;28;19932;-58
2022/07/16 08:34:05;;;;;;;;;;;24.90;79.40;;;;;;5062016;28;19959;-56
2022/07/16 08:36:32;;;;;;;;;;;24.90;77.20;;;;;;5066893;28;19928;-54
2022/07/16 08:39:00;;;;;;;;;;;24.90;80.20;;;;;;5060554;28;19928;-55
2022/07/16 08:41:27;;;;;;;;;;;25.00;84.00;;;;;;5062399;28;19932;-48
2022/07/16 08:43:54;;;;;;;;;;;25.20;82.80;;;;;;5064186;28;19936;-54
2022/07/16 08:46:21;;;;;;;;;;;25.40;83.50;;;;;;5064429;28;19935;-58
2022/07/16 08:48:49;;;;;;;;;;;25.50;84.10;;;;;;5062180;28;19930;-56
2022/07/16 08:51:20;;;;;;;;;;;25.60;84.60;;;;;;5061629;28;19928;-55
2022/07/16 08:53:47;;;;;;;;;;;25.60;85.50;;;;;;5061692;28;19929;-56
2022/07/16 08:56:15;;;;;;;;;;;25.60;86.70;;;;;;5059672;28;20321;-58
2022/07/16 08:58:43;;;;;;;;;;;25.50;83.60;;;;;;5061146;28;19929;-60
2022/07/16 09:01:10;;;;;;;;;;;25.30;85.00;;;;;;5065462;28;19955;-56
2022/07/16 09:03:37;;;;;;;;;;;25.30;87.40;;;;;;5064222;28;19943;-59
2022/07/16 09:06:06;;;;;;;;;;;25.30;85.40;;;;;;5061275;28;20308;-61
2022/07/16 09:08:33;;;;;;;;;;;25.40;84.10;;;;;;5064800;28;20391;-59
2022/07/16 09:11:20;;;;;;;;;;;25.40;82.80;;;;;;5061049;28;19929;-60
2022/07/16 09:14:01;;;;;;;;;;;25.40;79.80;;;;;;5059363;28;19933;-62
2022/07/16 09:16:34;;;;;;;;;;;25.40;80.60;;;;;;5061051;28;20482;-50
2022/07/16 09:19:03;;;;;;;;;;;25.40;80.20;;;;;;5061343;28;20313;-57
2022/07/16 09:21:30;;;;;;;;;;;25.30;79.40;;;;;;5066935;28;19943;-62
2022/07/16 09:23:57;;;;;;;;;;;25.20;78.70;;;;;;5061142;28;19932;-61
2022/07/16 09:26:26;;;;;;;;;;;25.30;78.70;;;;;;5063767;28;19924;-54
2022/07/16 09:28:53;;;;;;;;;;;25.30;78.20;;;;;;5051056;28;19929;-59
2022/07/16 09:31:32;;;;;;;;;;;25.40;76.20;;;;;;5050532;28;19971;-58
2022/07/16 09:34:01;;;;;;;;;;;25.40;77.00;;;;;;5064691;28;19939;-60
2022/07/16 09:36:28;;;;;;;;;;;25.50;77.10;;;;;;5063774;28;19952;-59
2022/07/16 09:38:55;;;;;;;;;;;25.60;77.40;;;;;;5065674;28;19928;-57
2022/07/16 09:41:22;;;;;;;;;;;25.70;78.60;;;;;;5065735;28;19929;-54
2022/07/16 09:43:50;;;;;;;;;;;25.70;79.80;;;;;;5065375;28;19928;-55
2022/07/16 09:46:22;;;;;;;;;;;25.70;81.60;;;;;;5065695;28;20549;-55
2022/07/16 09:48:50;;;;;;;;;;;25.80;82.20;;;;;;5064983;28;19928;-59
2022/07/16 09:51:22;;;;;;;;;;;25.80;82.10;;;;;;5068252;28;19932;-58
2022/07/16 09:53:50;;;;;;;;;;;25.80;81.90;;;;;;5066848;28;19929;-56
2022/07/16 09:56:21;;;;;;;;;;;25.80;81.70;;;;;;5062168;28;20037;-59
2022/07/16 09:58:51;;;;;;;;;;;25.80;82.10;;;;;;5027484;28;19928;-57
2022/07/16 10:01:19;;;;;;;;;;;25.80;83.40;;;;;;5063084;28;19940;-56
2022/07/16 10:03:49;;;;;;;;;;;25.80;84.40;;;;;;5059534;28;19935;-58
2022/07/16 10:06:19;;;;;;;;;;;25.80;84.20;;;;;;5046403;28;19932;-58
2022/07/16 10:08:49;;;;;;;;;;;25.80;84.10;;;;;;5064979;28;19928;-59
2022/07/16 10:11:17;;;;;;;;;;;25.90;84.00;;;;;;5064662;28;19928;-59
2022/07/16 10:13:44;;;;;;;;;;;25.90;83.70;;;;;;5059682;28;19932;-58
2022/07/16 10:16:12;;;;;;;;;;;25.90;79.50;;;;;;5064083;28;20462;-56
2022/07/16 10:18:44;;;;;;;;;;;25.80;78.40;;;;;;5057537;28;19929;-55
2022/07/16 10:21:18;;;;;;;;;;;25.80;77.00;;;;;;5057979;28;19936;-61
2022/07/16 10:23:47;;;;;;;;;;;25.80;77.00;;;;;;5058397;28;19961;-57
2022/07/16 10:26:14;;;;;;;;;;;25.90;77.70;;;;;;5056901;28;19928;-60
2022/07/16 10:28:43;;;;;;;;;;;25.90;77.60;;;;;;5062644;28;19929;-57
2022/07/16 10:31:29;;;;;;;;;;;25.80;77.00;;;;;;5061735;28;19935;-59
2022/07/16 10:34:15;;;;;;;;;;;25.80;75.40;;;;;;5062695;28;19935;-56
2022/07/16 10:36:45;;;;;;;;;;;25.70;73.60;;;;;;5061951;28;20289;-59
2022/07/16 10:39:16;;;;;;;;;;;25.70;73.90;;;;;;5064631;28;19944;-59
2022/07/16 10:41:51;;;;;;;;;;;25.70;73.10;;;;;;5057750;28;19928;-56
2022/07/16 10:44:20;;;;;;;;;;;25.70;72.90;;;;;;5063312;28;20402;-56
2022/07/16 10:46:57;;;;;;;;;;;25.70;73.10;;;;;;5065848;28;20463;-58
2022/07/16 10:49:25;;;;;;;;;;;25.70;73.20;;;;;;5046137;28;19940;-57
2022/07/16 10:51:55;;;;;;;;;;;25.70;73.30;;;;;;5060013;28;19932;-59
2022/07/16 10:54:39;;;;;;;;;;;25.70;73.40;;;;;;5062931;28;19928;-60
2022/07/16 10:57:07;;;;;;;;;;;25.80;73.80;;;;;;5059418;28;19928;-56
2022/07/16 10:59:41;;;;;;;;;;;25.70;73.80;;;;;;5062157;28;19928;-60
2022/07/16 11:02:12;;;;;;;;;;;25.70;73.90;;;;;;5064221;28;19932;-59
2022/07/16 11:04:41;;;;;;;;;;;25.70;74.10;;;;;;5055305;28;20755;-57
2022/07/16 11:07:10;;;;;;;;;;;25.70;74.20;;;;;;5064881;28;19955;-58
2022/07/16 11:09:47;;;;;;;;;;;25.70;74.20;;;;;;5057341;28;19928;-56
2022/07/16 11:12:21;;;;;;;;;;;25.70;74.40;;;;;;5065107;28;19961;-56
2022/07/16 11:14:49;;;;;;;;;;;25.70;74.50;;;;;;5060290;28;19929;-57
2022/07/16 11:17:17;;;;;;;;;;;25.70;74.60;;;;;;5064752;28;19933;-58
2022/07/16 11:19:48;;;;;;;;;;;25.70;74.70;;;;;;5055911;28;20418;-59
2022/07/16 11:22:20;;;;;;;;;;;25.70;74.80;;;;;;5047858;28;19924;-55
2022/07/16 11:24:48;;;;;;;;;;;25.80;74.80;;;;;;5063310;28;20420;-57
2022/07/16 11:27:16;;;;;;;;;;;25.80;74.70;;;;;;5060838;28;20855;-56
2022/07/16 11:29:44;;;;;;;;;;;25.80;74.90;;;;;;5066486;28;19940;-57
2022/07/16 11:32:12;;;;;;;;;;;25.70;75.10;;;;;;5050406;28;19936;-56
2022/07/16 11:34:39;;;;;;;;;;;25.70;74.90;;;;;;5067560;28;19929;-57
2022/07/16 11:37:06;;;;;;;;;;;25.70;75.60;;;;;;5067015;28;19932;-59
2022/07/16 11:39:34;;;;;;;;;;;25.70;76.60;;;;;;5051838;28;20409;-58
2022/07/16 11:42:01;;;;;;;;;;;25.80;77.00;;;;;;5065072;28;20408;-55
2022/07/16 11:44:30;;;;;;;;;;;25.90;77.40;;;;;;5067376;28;19936;-56
2022/07/16 11:46:59;;;;;;;;;;;25.90;77.50;;;;;;5061045;28;19925;-60
2022/07/16 11:49:26;;;;;;;;;;;25.90;77.70;;;;;;5067282;28;20032;-58
2022/07/16 11:51:56;;;;;;;;;;;25.90;77.70;;;;;;5066702;28;19925;-57
2022/07/16 11:54:23;;;;;;;;;;;25.90;77.70;;;;;;5064394;28;19936;-58
2022/07/16 11:56:51;;;;;;;;;;;25.90;78.20;;;;;;5067128;28;20403;-60
2022/07/16 11:59:25;;;;;;;;;;;25.90;78.00;;;;;;5059371;28;19933;-59
2022/07/16 12:02:05;;;;;;;;;;;25.90;78.00;;;;;;5063355;28;19928;-58
2022/07/16 12:04:33;;;;;;;;;;;26.00;78.30;;;;;;5070304;28;19928;-59
2022/07/16 12:07:01;;;;;;;;;;;26.00;78.60;;;;;;5043174;28;19937;-59
2022/07/16 12:09:30;;;;;;;;;;;26.00;78.70;;;;;;5046348;28;19936;-59
2022/07/16 12:11:58;;;;;;;;;;;26.00;78.50;;;;;;5052240;28;19925;-58
2022/07/16 12:14:44;;;;;;;;;;;26.00;78.60;;;;;;5047583;28;19929;-60
2022/07/16 12:17:31;;;;;;;;;;;25.90;78.60;;;;;;5044092;28;20407;-58
2022/07/16 12:20:17;;;;;;;;;;;26.00;79.20;;;;;;5046967;28;19975;-59
2022/07/16 12:22:52;;;;;;;;;;;26.00;79.20;;;;;;5048709;28;19929;-58
2022/07/16 12:25:39;;;;;;;;;;;26.00;79.30;;;;;;5044211;28;19929;-54
2022/07/16 12:28:08;;;;;;;;;;;26.00;79.30;;;;;;5042903;28;19997;-59
2022/07/16 12:30:40;;;;;;;;;;;26.00;79.10;;;;;;5038998;28;19929;-59
2022/07/16 12:33:16;;;;;;;;;;;26.00;79.20;;;;;;5039848;28;19936;-57
2022/07/16 12:35:45;;;;;;;;;;;26.10;79.40;;;;;;5046051;28;21783;-58
2022/07/16 12:38:31;;;;;;;;;;;26.10;79.30;;;;;;5047308;28;19925;-57
2022/07/16 12:40:58;;;;;;;;;;;26.10;79.80;;;;;;5040720;28;21698;-59
2022/07/16 12:43:25;;;;;;;;;;;26.10;79.30;;;;;;5043628;28;20502;-54
2022/07/16 12:45:52;;;;;;;;;;;26.10;78.50;;;;;;5046709;28;19936;-58
2022/07/16 12:48:20;;;;;;;;;;;26.10;78.70;;;;;;5043647;28;19940;-53
2022/07/16 12:50:47;;;;;;;;;;;26.20;78.90;;;;;;5053823;28;19929;-59
2022/07/16 12:53:15;;;;;;;;;;;26.20;78.90;;;;;;5050954;28;19929;-56
2022/07/16 13:01:21;;;;;;;;;;;26.30;78.80;;;;;;5044698;28;20287;-58
2022/07/16 13:03:49;;;;;;;;;;;26.30;78.20;;;;;;5038931;28;19925;-60
2022/07/16 13:06:17;;;;;;;;;;;26.40;78.90;;;;;;5042664;28;19936;-59
2022/07/16 13:08:44;;;;;;;;;;;26.40;78.70;;;;;;5044610;28;19952;-58
2022/07/16 13:11:12;;;;;;;;;;;26.40;78.70;;;;;;5057007;28;19928;-58
2022/07/16 13:13:40;;;;;;;;;;;26.40;78.10;;;;;;5061732;28;19947;-60
2022/07/16 13:16:08;;;;;;;;;;;26.50;78.40;;;;;;5046360;28;19931;-59
2022/07/16 13:18:36;;;;;;;;;;;26.40;78.00;;;;;;5067650;28;19935;-57
2022/07/16 13:21:04;;;;;;;;;;;26.40;77.90;;;;;;5063292;28;19948;-57
2022/07/16 13:23:32;;;;;;;;;;;26.40;77.60;;;;;;5048820;28;19929;-54
2022/07/16 13:26:00;;;;;;;;;;;26.50;78.20;;;;;;5061099;28;19932;-58
2022/07/16 13:28:28;;;;;;;;;;;26.60;78.10;;;;;;5061014;28;19932;-57
2022/07/16 13:30:55;;;;;;;;;;;26.60;78.10;;;;;;5065628;28;19929;-60
2022/07/16 13:33:23;;;;;;;;;;;26.70;78.90;;;;;;5063407;28;19928;-57
2022/07/16 13:35:52;;;;;;;;;;;26.70;79.00;;;;;;5063610;28;20403;-58
2022/07/16 13:38:20;;;;;;;;;;;26.70;78.70;;;;;;5057708;28;19937;-62
2022/07/16 13:40:49;;;;;;;;;;;26.80;78.40;;;;;;5062760;28;19955;-57
2022/07/16 13:43:17;;;;;;;;;;;26.70;78.20;;;;;;5065765;28;19929;-54
2022/07/16 13:45:45;;;;;;;;;;;26.70;77.50;;;;;;5065162;28;19932;-54
2022/07/16 13:48:15;;;;;;;;;;;26.80;78.60;;;;;;5060614;28;19924;-55
2022/07/16 13:50:42;;;;;;;;;;;26.70;78.90;;;;;;5064091;28;19931;-52
2022/07/16 13:53:10;;;;;;;;;;;26.70;79.20;;;;;;5064251;28;19928;-51
2022/07/16 13:55:38;;;;;;;;;;;26.80;77.90;;;;;;5060253;28;20371;-53
2022/07/16 13:58:20;;;;;;;;;;;26.70;77.20;;;;;;5065129;28;19928;-54
2022/07/16 14:00:49;;;;;;;;;;;26.70;76.10;;;;;;5065011;28;20430;-54
2022/07/16 14:03:17;;;;;;;;;;;26.70;77.40;;;;;;5062597;28;20027;-53
2022/07/16 14:05:47;;;;;;;;;;;26.70;75.00;;;;;;5065165;28;19935;-58
2022/07/16 14:08:14;;;;;;;;;;;26.60;74.90;;;;;;5033636;28;20470;-55
2022/07/16 14:10:42;;;;;;;;;;;26.60;75.90;;;;;;5035846;28;19932;-55
2022/07/16 14:13:09;;;;;;;;;;;26.60;75.50;;;;;;5045097;28;19929;-52
2022/07/16 14:15:37;;;;;;;;;;;26.60;73.80;;;;;;5046427;28;19932;-52
2022/07/16 14:18:05;;;;;;;;;;;26.70;74.60;;;;;;5047223;28;19939;-58
2022/07/16 14:20:33;;;;;;;;;;;26.70;73.30;;;;;;5038038;28;19929;-55
2022/07/16 14:23:02;;;;;;;;;;;26.80;72.70;;;;;;5042749;28;19924;-54
2022/07/16 14:25:29;;;;;;;;;;;26.90;73.40;;;;;;5032643;28;20442;-56
2022/07/16 14:27:57;;;;;;;;;;;26.80;73.60;;;;;;5044337;28;20683;-52
2022/07/16 14:30:24;;;;;;;;;;;26.80;73.50;;;;;;5041176;28;19948;-59
2022/07/16 14:32:56;;;;;;;;;;;26.80;73.60;;;;;;5042952;28;19929;-57
2022/07/16 14:35:23;;;;;;;;;;;26.80;72.50;;;;;;5043490;28;19928;-54
2022/07/16 14:37:51;;;;;;;;;;;26.90;73.90;;;;;;5042857;28;20383;-57